sensor_id;sensor_type;location;lat;lon;timestamp;temperature;humidity
54202;DHT22;40108;53.152;5.844;2023-02-22T00:00:56;7.40;97.80
54202;DHT22;40108;53.152;5.844;2023-02-22T00:03:30;7.30;97.70
54202;DHT22;40108;53.152;5.844;2023-02-22T00:06:01;7.40;97.70
54202;DHT22;40108;53.152;5.844;2023-02-22T00:08:33;7.40;97.80
54202;DHT22;40108;53.152;5.844;2023-02-22T00:11:01;7.30;97.80
54202;DHT22;40108;53.152;5.844;2023-02-22T00:13:28;7.40;97.80
54202;DHT22;40108;53.152;5.844;2023-02-22T00:16:00;7.30;97.70
54202;DHT22;40108;53.152;5.844;2023-02-22T00:18:27;7.30;97.70
54202;DHT22;40108;53.152;5.844;2023-02-22T00:20:57;7.40;97.80
54202;DHT22;40108;53.152;5.844;2023-02-22T00:23:30;7.30;97.80
54202;DHT22;40108;53.152;5.844;2023-02-22T00:25:59;7.30;97.80
54202;DHT22;40108;53.152;5.844;2023-02-22T00:28:28;7.30;97.80
54202;DHT22;40108;53.152;5.844;2023-02-22T00:30:55;7.30;97.70
54202;DHT22;40108;53.152;5.844;2023-02-22T00:33:23;7.30;97.80
54202;DHT22;40108;53.152;5.844;2023-02-22T00:35:49;7.30;97.80
54202;DHT22;40108;53.152;5.844;2023-02-22T00:38:26;7.30;97.80
54202;DHT22;40108;53.152;5.844;2023-02-22T00:40:52;7.30;97.80
54202;DHT22;40108;53.152;5.844;2023-02-22T00:43:20;7.30;97.70
54202;DHT22;40108;53.152;5.844;2023-02-22T00:45:46;7.30;97.70
54202;DHT22;40108;53.152;5.844;2023-02-22T00:48:14;7.30;97.80
54202;DHT22;40108;53.152;5.844;2023-02-22T00:50:40;7.30;97.80
54202;DHT22;40108;53.152;5.844;2023-02-22T00:53:08;7.30;97.80
54202;DHT22;40108;53.152;5.844;2023-02-22T00:55:37;7.30;97.80
54202;DHT22;40108;53.152;5.844;2023-02-22T00:58:04;7.30;97.80
54202;DHT22;40108;53.152;5.844;2023-02-22T01:00:33;7.30;97.80
54202;DHT22;40108;53.152;5.844;2023-02-22T01:03:02;7.30;97.80
54202;DHT22;40108;53.152;5.844;2023-02-22T01:05:31;7.30;97.80
54202;DHT22;40108;53.152;5.844;2023-02-22T01:08:04;7.30;97.80
54202;DHT22;40108;53.152;5.844;2023-02-22T01:10:36;7.30;97.80
54202;DHT22;40108;53.152;5.844;2023-02-22T01:13:03;7.30;97.80
54202;DHT22;40108;53.152;5.844;2023-02-22T01:15:37;7.30;97.80
54202;DHT22;40108;53.152;5.844;2023-02-22T01:18:04;7.30;97.80
54202;DHT22;40108;53.152;5.844;2023-02-22T01:20:30;7.30;97.80
54202;DHT22;40108;53.152;5.844;2023-02-22T01:22:58;7.30;97.90
54202;DHT22;40108;53.152;5.844;2023-02-22T01:25:28;7.30;97.90
54202;DHT22;40108;53.152;5.844;2023-02-22T01:28:00;7.30;97.90
54202;DHT22;40108;53.152;5.844;2023-02-22T01:30:29;7.30;97.90
54202;DHT22;40108;53.152;5.844;2023-02-22T01:32:58;7.40;97.90
54202;DHT22;40108;53.152;5.844;2023-02-22T01:35:27;7.30;97.90
54202;DHT22;40108;53.152;5.844;2023-02-22T01:37:57;7.30;97.90
54202;DHT22;40108;53.152;5.844;2023-02-22T01:40:31;7.30;97.90
54202;DHT22;40108;53.152;5.844;2023-02-22T01:43:00;7.30;97.90
54202;DHT22;40108;53.152;5.844;2023-02-22T01:50:24;7.40;97.90
54202;DHT22;40108;53.152;5.844;2023-02-22T01:52:52;7.30;97.90
54202;DHT22;40108;53.152;5.844;2023-02-22T01:55:21;7.30;97.80
54202;DHT22;40108;53.152;5.844;2023-02-22T01:57:48;7.30;97.80
54202;DHT22;40108;53.152;5.844;2023-02-22T02:00:18;7.30;97.80
54202;DHT22;40108;53.152;5.844;2023-02-22T02:02:55;7.30;97.80
54202;DHT22;40108;53.152;5.844;2023-02-22T02:05:26;7.30;97.80
54202;DHT22;40108;53.152;5.844;2023-02-22T02:08:09;7.30;97.70
54202;DHT22;40108;53.152;5.844;2023-02-22T02:10:40;7.30;97.70
54202;DHT22;40108;53.152;5.844;2023-02-22T02:13:07;7.30;97.70
54202;DHT22;40108;53.152;5.844;2023-02-22T02:15:34;7.30;97.70
54202;DHT22;40108;53.152;5.844;2023-02-22T02:18:06;7.40;97.70
54202;DHT22;40108;53.152;5.844;2023-02-22T02:26:43;7.30;97.60
54202;DHT22;40108;53.152;5.844;2023-02-22T02:32:24;7.30;97.50
54202;DHT22;40108;53.152;5.844;2023-02-22T02:37:54;7.30;97.40
54202;DHT22;40108;53.152;5.844;2023-02-22T02:40:40;7.30;97.40
54202;DHT22;40108;53.152;5.844;2023-02-22T02:43:31;7.30;97.40
54202;DHT22;40108;53.152;5.844;2023-02-22T02:46:05;7.30;97.30
54202;DHT22;40108;53.152;5.844;2023-02-22T02:48:33;7.20;97.30
54202;DHT22;40108;53.152;5.844;2023-02-22T02:51:01;7.20;97.30
54202;DHT22;40108;53.152;5.844;2023-02-22T02:53:37;7.20;97.30
54202;DHT22;40108;53.152;5.844;2023-02-22T02:56:04;7.20;97.40
54202;DHT22;40108;53.152;5.844;2023-02-22T02:58:30;7.20;97.30
54202;DHT22;40108;53.152;5.844;2023-02-22T03:01:00;7.20;97.30
54202;DHT22;40108;53.152;5.844;2023-02-22T03:09:04;7.20;97.40
54202;DHT22;40108;53.152;5.844;2023-02-22T03:12:06;7.20;97.40
54202;DHT22;40108;53.152;5.844;2023-02-22T03:14:58;7.30;97.40
54202;DHT22;40108;53.152;5.844;2023-02-22T03:17:41;7.20;97.40
54202;DHT22;40108;53.152;5.844;2023-02-22T03:20:31;7.20;97.40
54202;DHT22;40108;53.152;5.844;2023-02-22T03:23:06;7.20;97.40
54202;DHT22;40108;53.152;5.844;2023-02-22T03:25:40;7.30;97.40
54202;DHT22;40108;53.152;5.844;2023-02-22T03:28:14;7.20;97.40
54202;DHT22;40108;53.152;5.844;2023-02-22T03:30:48;7.30;97.40
54202;DHT22;40108;53.152;5.844;2023-02-22T03:33:31;7.30;97.50
54202;DHT22;40108;53.152;5.844;2023-02-22T03:36:08;7.30;97.40
54202;DHT22;40108;53.152;5.844;2023-02-22T03:38:37;7.30;97.50
54202;DHT22;40108;53.152;5.844;2023-02-22T03:41:06;7.30;97.50
54202;DHT22;40108;53.152;5.844;2023-02-22T03:43:58;7.30;97.50
54202;DHT22;40108;53.152;5.844;2023-02-22T03:46:25;7.30;97.50
54202;DHT22;40108;53.152;5.844;2023-02-22T03:51:26;7.30;97.50
54202;DHT22;40108;53.152;5.844;2023-02-22T03:53:52;7.30;97.50
54202;DHT22;40108;53.152;5.844;2023-02-22T03:56:25;7.30;97.50
54202;DHT22;40108;53.152;5.844;2023-02-22T03:58:53;7.30;97.50
54202;DHT22;40108;53.152;5.844;2023-02-22T04:01:21;7.30;97.50
54202;DHT22;40108;53.152;5.844;2023-02-22T04:03:50;7.30;97.60
54202;DHT22;40108;53.152;5.844;2023-02-22T04:06:16;7.30;97.60
54202;DHT22;40108;53.152;5.844;2023-02-22T04:08:41;7.30;97.60
54202;DHT22;40108;53.152;5.844;2023-02-22T04:11:09;7.30;97.60
54202;DHT22;40108;53.152;5.844;2023-02-22T04:13:38;7.30;97.60
54202;DHT22;40108;53.152;5.844;2023-02-22T04:16:04;7.30;97.60
54202;DHT22;40108;53.152;5.844;2023-02-22T04:18:32;7.30;97.60
54202;DHT22;40108;53.152;5.844;2023-02-22T04:21:00;7.30;97.60
54202;DHT22;40108;53.152;5.844;2023-02-22T04:23:29;7.30;97.60
54202;DHT22;40108;53.152;5.844;2023-02-22T04:25:55;7.30;97.70
54202;DHT22;40108;53.152;5.844;2023-02-22T04:28:24;7.30;97.70
54202;DHT22;40108;53.152;5.844;2023-02-22T04:30:49;7.30;97.70
54202;DHT22;40108;53.152;5.844;2023-02-22T04:33:15;7.30;97.70
54202;DHT22;40108;53.152;5.844;2023-02-22T04:35:41;7.30;97.70
54202;DHT22;40108;53.152;5.844;2023-02-22T04:38:10;7.30;97.70
54202;DHT22;40108;53.152;5.844;2023-02-22T04:40:38;7.30;97.70
54202;DHT22;40108;53.152;5.844;2023-02-22T04:43:06;7.30;97.60
54202;DHT22;40108;53.152;5.844;2023-02-22T04:45:32;7.20;97.50
54202;DHT22;40108;53.152;5.844;2023-02-22T04:48:00;7.20;97.40
54202;DHT22;40108;53.152;5.844;2023-02-22T04:50:28;7.20;97.30
54202;DHT22;40108;53.152;5.844;2023-02-22T04:52:57;7.20;97.00
54202;DHT22;40108;53.152;5.844;2023-02-22T04:55:23;7.20;96.90
54202;DHT22;40108;53.152;5.844;2023-02-22T04:57:50;7.20;96.90
54202;DHT22;40108;53.152;5.844;2023-02-22T05:00:19;7.20;96.70
54202;DHT22;40108;53.152;5.844;2023-02-22T05:02:48;7.20;96.30
54202;DHT22;40108;53.152;5.844;2023-02-22T05:05:16;7.20;96.30
54202;DHT22;40108;53.152;5.844;2023-02-22T05:07:42;7.20;96.20
54202;DHT22;40108;53.152;5.844;2023-02-22T05:10:09;7.20;96.20
54202;DHT22;40108;53.152;5.844;2023-02-22T05:12:36;7.20;96.10
54202;DHT22;40108;53.152;5.844;2023-02-22T05:15:05;7.20;96.00
54202;DHT22;40108;53.152;5.844;2023-02-22T05:17:33;7.10;95.80
54202;DHT22;40108;53.152;5.844;2023-02-22T05:20:00;7.10;95.80
54202;DHT22;40108;53.152;5.844;2023-02-22T05:22:29;7.10;95.70
54202;DHT22;40108;53.152;5.844;2023-02-22T05:24:55;7.10;95.60
54202;DHT22;40108;53.152;5.844;2023-02-22T05:27:23;7.10;95.20
54202;DHT22;40108;53.152;5.844;2023-02-22T05:29:54;7.10;95.20
54202;DHT22;40108;53.152;5.844;2023-02-22T05:32:20;7.00;95.00
54202;DHT22;40108;53.152;5.844;2023-02-22T05:34:46;7.00;95.00
54202;DHT22;40108;53.152;5.844;2023-02-22T05:37:17;7.00;94.90
54202;DHT22;40108;53.152;5.844;2023-02-22T05:39:45;7.00;94.90
54202;DHT22;40108;53.152;5.844;2023-02-22T05:42:16;7.00;94.90
54202;DHT22;40108;53.152;5.844;2023-02-22T05:44:47;7.00;94.90
54202;DHT22;40108;53.152;5.844;2023-02-22T05:47:12;7.00;94.80
54202;DHT22;40108;53.152;5.844;2023-02-22T05:49:41;7.00;94.90
54202;DHT22;40108;53.152;5.844;2023-02-22T05:52:07;6.90;94.80
54202;DHT22;40108;53.152;5.844;2023-02-22T05:54:35;6.90;94.90
54202;DHT22;40108;53.152;5.844;2023-02-22T05:57:01;7.00;95.00
54202;DHT22;40108;53.152;5.844;2023-02-22T05:59:27;6.90;95.00
54202;DHT22;40108;53.152;5.844;2023-02-22T06:01:56;6.90;95.00
54202;DHT22;40108;53.152;5.844;2023-02-22T06:04:24;6.90;95.00
54202;DHT22;40108;53.152;5.844;2023-02-22T06:06:59;6.90;94.90
54202;DHT22;40108;53.152;5.844;2023-02-22T06:09:30;6.80;95.00
54202;DHT22;40108;53.152;5.844;2023-02-22T06:11:59;6.80;95.00
54202;DHT22;40108;53.152;5.844;2023-02-22T06:14:27;6.80;94.90
54202;DHT22;40108;53.152;5.844;2023-02-22T06:16:58;6.80;94.90
54202;DHT22;40108;53.152;5.844;2023-02-22T06:19:25;6.80;94.80
54202;DHT22;40108;53.152;5.844;2023-02-22T06:21:56;6.80;94.70
54202;DHT22;40108;53.152;5.844;2023-02-22T06:24:22;6.70;94.40
54202;DHT22;40108;53.152;5.844;2023-02-22T06:27:01;6.70;94.30
54202;DHT22;40108;53.152;5.844;2023-02-22T06:29:33;6.70;94.10
54202;DHT22;40108;53.152;5.844;2023-02-22T06:31:59;6.70;94.20
54202;DHT22;40108;53.152;5.844;2023-02-22T06:34:25;6.70;94.10
54202;DHT22;40108;53.152;5.844;2023-02-22T06:36:51;6.70;94.20
54202;DHT22;40108;53.152;5.844;2023-02-22T06:39:20;6.60;94.20
54202;DHT22;40108;53.152;5.844;2023-02-22T06:41:46;6.50;94.20
54202;DHT22;40108;53.152;5.844;2023-02-22T06:44:13;6.50;94.20
54202;DHT22;40108;53.152;5.844;2023-02-22T06:46:58;6.50;94.20
54202;DHT22;40108;53.152;5.844;2023-02-22T06:49:25;6.50;94.20
54202;DHT22;40108;53.152;5.844;2023-02-22T06:51:52;6.40;94.20
54202;DHT22;40108;53.152;5.844;2023-02-22T06:54:21;6.40;94.30
54202;DHT22;40108;53.152;5.844;2023-02-22T06:56:47;6.30;94.30
54202;DHT22;40108;53.152;5.844;2023-02-22T06:59:14;6.30;94.20
54202;DHT22;40108;53.152;5.844;2023-02-22T07:01:45;6.30;94.30
54202;DHT22;40108;53.152;5.844;2023-02-22T07:04:13;6.20;94.20
54202;DHT22;40108;53.152;5.844;2023-02-22T07:06:52;6.30;94.30
54202;DHT22;40108;53.152;5.844;2023-02-22T07:09:27;6.30;94.30
54202;DHT22;40108;53.152;5.844;2023-02-22T07:11:55;6.20;94.30
54202;DHT22;40108;53.152;5.844;2023-02-22T07:14:21;6.30;94.50
54202;DHT22;40108;53.152;5.844;2023-02-22T07:16:47;6.20;94.60
54202;DHT22;40108;53.152;5.844;2023-02-22T07:19:13;6.20;94.60
54202;DHT22;40108;53.152;5.844;2023-02-22T07:21:49;6.30;94.70
54202;DHT22;40108;53.152;5.844;2023-02-22T07:24:22;6.20;94.70
54202;DHT22;40108;53.152;5.844;2023-02-22T07:26:48;6.20;94.70
54202;DHT22;40108;53.152;5.844;2023-02-22T07:29:14;6.30;94.80
54202;DHT22;40108;53.152;5.844;2023-02-22T07:31:42;6.30;94.80
54202;DHT22;40108;53.152;5.844;2023-02-22T07:34:07;6.30;94.80
54202;DHT22;40108;53.152;5.844;2023-02-22T07:36:33;6.30;94.80
54202;DHT22;40108;53.152;5.844;2023-02-22T07:39:02;6.30;94.80
54202;DHT22;40108;53.152;5.844;2023-02-22T07:41:27;6.30;94.80
54202;DHT22;40108;53.152;5.844;2023-02-22T07:43:56;6.40;94.90
54202;DHT22;40108;53.152;5.844;2023-02-22T07:46:24;6.40;94.90
54202;DHT22;40108;53.152;5.844;2023-02-22T07:48:49;6.40;95.00
54202;DHT22;40108;53.152;5.844;2023-02-22T07:51:16;6.40;95.00
54202;DHT22;40108;53.152;5.844;2023-02-22T07:53:45;6.40;95.10
54202;DHT22;40108;53.152;5.844;2023-02-22T07:56:13;6.40;95.00
54202;DHT22;40108;53.152;5.844;2023-02-22T07:58:47;6.50;95.00
54202;DHT22;40108;53.152;5.844;2023-02-22T08:01:13;6.50;94.90
54202;DHT22;40108;53.152;5.844;2023-02-22T08:03:38;6.50;94.90
54202;DHT22;40108;53.152;5.844;2023-02-22T08:06:07;6.50;94.90
54202;DHT22;40108;53.152;5.844;2023-02-22T08:08:33;6.50;94.90
54202;DHT22;40108;53.152;5.844;2023-02-22T08:11:01;6.50;94.80
54202;DHT22;40108;53.152;5.844;2023-02-22T08:13:29;6.50;94.80
54202;DHT22;40108;53.152;5.844;2023-02-22T08:15:56;6.50;94.90
54202;DHT22;40108;53.152;5.844;2023-02-22T08:18:25;6.50;95.00
54202;DHT22;40108;53.152;5.844;2023-02-22T08:21:00;6.50;95.00
54202;DHT22;40108;53.152;5.844;2023-02-22T08:23:33;6.40;94.90
54202;DHT22;40108;53.152;5.844;2023-02-22T08:41:33;6.40;94.80
54202;DHT22;40108;53.152;5.844;2023-02-22T11:24:24;7.70;93.30
54202;DHT22;40108;53.152;5.844;2023-02-22T11:26:57;7.70;93.30
54202;DHT22;40108;53.152;5.844;2023-02-22T11:29:34;7.70;93.30
54202;DHT22;40108;53.152;5.844;2023-02-22T11:32:11;7.70;93.40
54202;DHT22;40108;53.152;5.844;2023-02-22T13:36:11;8.30;93.30
54202;DHT22;40108;53.152;5.844;2023-02-22T13:52:59;8.40;93.50
54202;DHT22;40108;53.152;5.844;2023-02-22T14:10:55;8.40;92.90
54202;DHT22;40108;53.152;5.844;2023-02-22T14:13:25;8.40;92.90
54202;DHT22;40108;53.152;5.844;2023-02-22T14:18:46;8.50;92.80
54202;DHT22;40108;53.152;5.844;2023-02-22T14:21:19;8.50;92.40
54202;DHT22;40108;53.152;5.844;2023-02-22T14:29:58;8.50;92.40
54202;DHT22;40108;53.152;5.844;2023-02-22T14:32:33;8.50;92.60
54202;DHT22;40108;53.152;5.844;2023-02-22T14:35:12;8.50;92.60
54202;DHT22;40108;53.152;5.844;2023-02-22T14:37:41;8.50;92.70
54202;DHT22;40108;53.152;5.844;2023-02-22T14:40:21;8.50;92.70
54202;DHT22;40108;53.152;5.844;2023-02-22T14:43:11;8.50;92.70
54202;DHT22;40108;53.152;5.844;2023-02-22T14:46:00;8.50;92.50
54202;DHT22;40108;53.152;5.844;2023-02-22T14:52:47;8.50;92.40
54202;DHT22;40108;53.152;5.844;2023-02-22T15:18:51;8.50;92.10
54202;DHT22;40108;53.152;5.844;2023-02-22T15:24:39;8.50;92.10
54202;DHT22;40108;53.152;5.844;2023-02-22T15:27:14;8.50;92.20
54202;DHT22;40108;53.152;5.844;2023-02-22T15:29:43;8.50;92.20
54202;DHT22;40108;53.152;5.844;2023-02-22T15:32:34;8.50;92.30
54202;DHT22;40108;53.152;5.844;2023-02-22T16:32:03;8.20;93.60
54202;DHT22;40108;53.152;5.844;2023-02-22T16:34:29;8.20;93.60
54202;DHT22;40108;53.152;5.844;2023-02-22T16:36:58;8.20;93.70
54202;DHT22;40108;53.152;5.844;2023-02-22T16:39:32;8.20;93.60
54202;DHT22;40108;53.152;5.844;2023-02-22T16:42:06;8.20;93.70
54202;DHT22;40108;53.152;5.844;2023-02-22T16:44:41;8.10;93.80
54202;DHT22;40108;53.152;5.844;2023-02-22T16:47:08;8.10;93.80
54202;DHT22;40108;53.152;5.844;2023-02-22T16:49:35;8.10;93.80
54202;DHT22;40108;53.152;5.844;2023-02-22T16:52:11;8.10;93.90
54202;DHT22;40108;53.152;5.844;2023-02-22T16:55:16;8.00;93.90
54202;DHT22;40108;53.152;5.844;2023-02-22T16:57:49;8.00;94.10
54202;DHT22;40108;53.152;5.844;2023-02-22T17:00:21;8.00;94.20
54202;DHT22;40108;53.152;5.844;2023-02-22T17:03:00;7.90;94.20
54202;DHT22;40108;53.152;5.844;2023-02-22T17:05:32;7.90;94.30
54202;DHT22;40108;53.152;5.844;2023-02-22T17:08:07;7.90;94.30
54202;DHT22;40108;53.152;5.844;2023-02-22T17:10:43;7.90;94.40
54202;DHT22;40108;53.152;5.844;2023-02-22T17:14:05;7.90;94.40
54202;DHT22;40108;53.152;5.844;2023-02-22T17:20:30;7.80;94.50
54202;DHT22;40108;53.152;5.844;2023-02-22T17:30:23;7.70;94.50
54202;DHT22;40108;53.152;5.844;2023-02-22T17:32:52;7.70;94.50
54202;DHT22;40108;53.152;5.844;2023-02-22T17:35:21;7.70;94.60
54202;DHT22;40108;53.152;5.844;2023-02-22T17:55:59;7.50;94.70
54202;DHT22;40108;53.152;5.844;2023-02-22T17:58:38;7.50;94.70
54202;DHT22;40108;53.152;5.844;2023-02-22T20:18:28;7.10;95.30
54202;DHT22;40108;53.152;5.844;2023-02-22T20:20:57;7.00;95.30
54202;DHT22;40108;53.152;5.844;2023-02-22T20:23:22;7.00;95.30
